Pettus, Texas
Current Conditions -  °F | °C
As of 5:55 AM on Saturday 20 Dec 2014 (Local Time) from KBEA Reporting Station
Overcast Overcast  
Wind Chill: 51°   Ceiling: 900
Heat Index: 51°   Visibility: 10mi
Dew Point: 49°   Wind: 7mph
Humidity: 94%   Direction: 10°N
Pressure: 30.18"   Gusts: NA
Location:  28.62°N, 97.8°W
Report Text: KBEA 201155Z AUTO 01006KT 10SM OVC009 10/09 A3018 RMK AO2 70015 T01030094 10121 20102
Loading
Personal Weather Stations






























Interactive Weather Map New forecast layout! Learn more

10-Day Weather Forecast

Advertisements
Track Severe Weather on mobile